Time;durP1;ratioP1;P1;durP2;ratioP2;P2;SDS_P1;SDS_P2;PMS_P1;PMS_P2;Temp;Humidity;BMP_temperature;BMP_pressure;BME280_temperature;BME280_humidity;BME280_pressure;Samples;Min_cycle;Max_cycle;Signal;HPM_P1;HPM_P2
2024/04/18 00:01:00;;;;;;;0.65;0.65;;;5.60;1.00;;;;;;5411100;26;20027;-79
2024/04/18 00:03:26;;;;;;;0.10;0.10;;;5.60;1.00;;;;;;5394282;26;20028;-80
2024/04/18 00:05:53;;;;;;;0.25;0.25;;;5.60;1.00;;;;;;5396745;26;20031;-80
2024/04/18 00:08:20;;;;;;;0.25;0.25;;;5.60;1.00;;;;;;5407341;26;20032;-81
2024/04/18 00:10:46;;;;;;;0.82;0.82;;;5.60;1.00;;;;;;5423801;26;20039;-80
2024/04/18 00:13:32;;;;;;;0.10;0.10;;;5.60;1.00;;;;;;5423120;26;20406;-80
2024/04/18 00:16:01;;;;;;;0.57;0.57;;;5.60;1.00;;;;;;5438952;26;20028;-79
2024/04/18 00:18:33;;;;;;;0.10;0.10;;;5.60;1.00;;;;;;5398322;26;20044;-79
2024/04/18 00:21:19;;;;;;;0.20;0.20;;;5.70;1.00;;;;;;5417789;26;20487;-81
2024/04/18 00:23:54;;;;;;;0.57;0.57;;;5.70;1.00;;;;;;5405878;26;20031;-80
2024/04/18 00:26:40;;;;;;;1.27;0.40;;;5.70;1.00;;;;;;5437809;26;20028;-81
2024/04/18 00:29:07;;;;;;;0.47;0.45;;;5.70;1.00;;;;;;5427741;26;20143;-80
2024/04/18 00:31:34;;;;;;;0.10;0.10;;;5.70;1.00;;;;;;5429561;26;20378;-80
2024/04/18 00:34:00;;;;;;;0.20;0.20;;;5.80;1.00;;;;;;5394026;26;20368;-80
2024/04/18 00:36:29;;;;;;;0.40;0.40;;;5.70;1.00;;;;;;5444018;26;20039;-80
2024/04/18 00:38:55;;;;;;;0.22;0.22;;;5.80;1.00;;;;;;5444626;26;20034;-79
2024/04/18 00:41:22;;;;;;;1.85;0.57;;;5.90;1.00;;;;;;5429565;26;20355;-80
2024/04/18 00:43:57;;;;;;;0.43;0.43;;;5.90;1.00;;;;;;5417551;26;20038;-80
2024/04/18 00:46:33;;;;;;;0.35;0.35;;;5.80;1.00;;;;;;5429225;26;20039;-80
2024/04/18 00:48:59;;;;;;;0.10;0.10;;;5.70;1.00;;;;;;5436414;26;20472;-81
2024/04/18 00:51:26;;;;;;;0.13;0.13;;;5.70;1.00;;;;;;5437739;26;20030;-80
2024/04/18 00:53:53;;;;;;;0.20;0.20;;;5.60;1.00;;;;;;5428135;26;20035;-80
2024/04/18 00:56:25;;;;;;;0.73;0.73;;;5.60;1.00;;;;;;5443800;26;20116;-81
2024/04/18 00:59:14;;;;;;;0.47;0.43;;;5.50;1.00;;;;;;5429457;26;20039;-80
2024/04/18 01:01:40;;;;;;;0.30;0.30;;;5.40;1.00;;;;;;5427494;26;20035;-80
2024/04/18 01:04:07;;;;;;;0.32;0.32;;;5.40;1.00;;;;;;5426976;26;20040;-80
2024/04/18 01:06:40;;;;;;;0.20;0.20;;;5.30;1.00;;;;;;5432901;26;20047;-80
2024/04/18 01:09:17;;;;;;;0.30;0.30;;;5.20;1.00;;;;;;5422384;26;20039;-79
2024/04/18 01:12:02;;;;;;;0.25;0.25;;;5.10;1.00;;;;;;5393780;26;20043;-79
2024/04/18 01:14:29;;;;;;;0.63;0.63;;;5.10;17.20;;;;;;5432834;26;20178;-79
2024/04/18 01:17:04;;;;;;;0.25;0.25;;;5.00;1.00;;;;;;5434185;26;20040;-79
2024/04/18 01:19:31;;;;;;;0.43;0.43;;;4.80;1.00;;;;;;5419426;26;20040;-79
2024/04/18 01:21:58;;;;;;;0.75;0.75;;;4.70;11.20;;;;;;5399034;26;20031;-79
2024/04/18 01:24:24;;;;;;;0.43;0.43;;;4.70;33.30;;;;;;5435557;26;20036;-79
2024/04/18 01:26:51;;;;;;;0.65;0.65;;;4.50;49.10;;;;;;5437435;26;20031;-80
2024/04/18 01:29:17;;;;;;;1.15;1.05;;;4.50;95.70;;;;;;5407780;26;20035;-79
2024/04/18 01:32:01;;;;;;;0.35;0.35;;;4.50;99.90;;;;;;5436746;26;20036;-79
2024/04/18 01:34:28;;;;;;;0.50;0.50;;;4.50;99.90;;;;;;5429255;26;20036;-79
2024/04/18 01:37:13;;;;;;;0.20;0.20;;;4.40;99.90;;;;;;5421407;26;20043;-78
2024/04/18 01:39:39;;;;;;;0.60;0.60;;;4.40;99.90;;;;;;5411834;26;20032;-78
2024/04/18 01:42:05;;;;;;;3.40;0.55;;;4.40;99.90;;;;;;5418771;26;20040;-78
2024/04/18 01:44:47;;;;;;;0.50;0.50;;;4.40;99.90;;;;;;5426630;26;20031;-76
2024/04/18 01:47:32;;;;;;;0.38;0.38;;;4.40;99.90;;;;;;5421881;26;20051;-80
2024/04/18 01:50:07;;;;;;;0.30;0.30;;;4.40;99.90;;;;;;5437298;26;20070;-78
2024/04/18 01:52:33;;;;;;;1.08;0.98;;;4.50;1.00;;;;;;5433335;26;20040;-77
2024/04/18 01:55:03;;;;;;;1.98;0.47;;;4.50;1.00;;;;;;5439869;26;20031;-78
2024/04/18 01:57:36;;;;;;;2.63;0.95;;;4.50;1.00;;;;;;5438607;26;20425;-79
2024/04/18 02:00:20;;;;;;;0.50;0.50;;;4.40;1.00;;;;;;5425819;26;20040;-78
2024/04/18 02:02:47;;;;;;;1.00;0.90;;;4.40;1.00;;;;;;5403595;26;20028;-77
2024/04/18 02:05:34;;;;;;;0.70;0.68;;;4.40;1.00;;;;;;5432054;26;20035;-78
2024/04/18 02:08:16;;;;;;;0.68;0.68;;;4.40;1.00;;;;;;5407942;26;20039;-78
2024/04/18 02:10:45;;;;;;;1.25;1.15;;;4.50;1.00;;;;;;5362234;26;20031;-78
2024/04/18 02:13:34;;;;;;;0.40;0.40;;;4.40;1.00;;;;;;5435527;26;20051;-78
2024/04/18 02:16:01;;;;;;;1.33;1.23;;;4.50;7.70;;;;;;5436658;26;20040;-79
2024/04/18 02:18:46;;;;;;;1.02;1.00;;;4.50;20.30;;;;;;5422736;26;20035;-77
2024/04/18 02:21:12;;;;;;;0.57;0.55;;;4.50;19.90;;;;;;5413824;26;20031;-78
2024/04/18 02:23:50;;;;;;;1.95;1.27;;;4.50;23.70;;;;;;5440569;26;20039;-78
2024/04/18 02:26:17;;;;;;;4.13;1.35;;;4.50;27.80;;;;;;5432016;26;20028;-79
2024/04/18 02:28:44;;;;;;;2.00;1.58;;;4.50;56.00;;;;;;5394428;26;20039;-79
2024/04/18 02:31:16;;;;;;;0.95;0.95;;;4.50;60.90;;;;;;5390072;26;20152;-79
2024/04/18 02:33:52;;;;;;;1.58;1.48;;;4.50;73.50;;;;;;5400324;26;20038;-78
2024/04/18 02:36:18;;;;;;;4.10;0.93;;;4.50;90.30;;;;;;5427754;26;20034;-78
2024/04/18 02:38:45;;;;;;;1.50;1.42;;;4.40;45.60;;;;;;5430218;26;20107;-78
2024/04/18 02:41:11;;;;;;;0.75;0.75;;;4.40;66.20;;;;;;5434935;26;20028;-78
2024/04/18 02:43:51;;;;;;;0.38;0.38;;;4.40;68.90;;;;;;5439223;26;20031;-79
2024/04/18 02:46:17;;;;;;;0.68;0.68;;;4.40;59.60;;;;;;5421553;26;20139;-80
2024/04/18 02:49:02;;;;;;;1.27;0.95;;;4.30;42.10;;;;;;5425156;26;20039;-80
2024/04/18 02:51:28;;;;;;;1.55;1.45;;;4.40;37.20;;;;;;5429163;26;20457;-79
2024/04/18 02:54:13;;;;;;;0.20;0.20;;;4.40;39.20;;;;;;5431175;26;20044;-80
2024/04/18 02:56:40;;;;;;;0.60;0.60;;;4.40;28.20;;;;;;5430844;26;20043;-78
2024/04/18 02:59:10;;;;;;;0.47;0.47;;;4.40;34.30;;;;;;5417179;26;20033;-78
2024/04/18 03:01:49;;;;;;;1.65;0.88;;;4.40;29.00;;;;;;5423838;26;20028;-80
2024/04/18 03:04:15;;;;;;;0.55;0.55;;;4.40;25.30;;;;;;5435198;26;20030;-79
2024/04/18 03:06:41;;;;;;;0.88;0.63;;;4.30;27.30;;;;;;5433149;26;20044;-78
2024/04/18 03:09:14;;;;;;;0.28;0.28;;;4.30;21.80;;;;;;5447274;26;20035;-79
2024/04/18 03:11:53;;;;;;;0.65;0.65;;;4.30;21.50;;;;;;5419097;26;20036;-78
2024/04/18 03:14:42;;;;;;;0.40;0.40;;;4.40;34.40;;;;;;5437406;26;20370;-78
2024/04/18 03:17:08;;;;;;;1.93;1.17;;;4.40;52.90;;;;;;5430858;26;20114;-78
2024/04/18 03:19:53;;;;;;;1.50;1.40;;;4.40;42.90;;;;;;5426289;26;20040;-79
2024/04/18 03:22:26;;;;;;;1.08;0.95;;;4.30;26.70;;;;;;5435631;26;20375;-79
2024/04/18 03:25:01;;;;;;;2.05;1.52;;;4.40;43.10;;;;;;5404256;26;20105;-78
2024/04/18 03:27:30;;;;;;;0.85;0.85;;;4.40;58.70;;;;;;5434995;26;20038;-79
2024/04/18 03:29:56;;;;;;;2.05;0.73;;;4.40;77.10;;;;;;5427609;26;20480;-78
2024/04/18 03:32:36;;;;;;;1.42;1.13;;;4.30;56.30;;;;;;5437715;26;20039;-78
2024/04/18 03:35:03;;;;;;;0.65;0.65;;;4.30;54.10;;;;;;5417311;26;20035;-79
2024/04/18 03:37:29;;;;;;;1.50;0.85;;;4.30;58.70;;;;;;5437531;26;20030;-80
2024/04/18 03:39:55;;;;;;;0.30;0.30;;;4.30;86.00;;;;;;5436180;26;20036;-80
2024/04/18 03:42:22;;;;;;;0.85;0.85;;;4.30;97.20;;;;;;5421784;26;20467;-78
2024/04/18 03:44:51;;;;;;;1.33;1.27;;;4.30;99.90;;;;;;5440594;26;20030;-79
2024/04/18 03:47:17;;;;;;;2.22;1.52;;;4.40;99.90;;;;;;5448612;26;20031;-79
2024/04/18 03:50:03;;;;;;;2.28;1.65;;;4.50;99.90;;;;;;5427468;26;20491;-79
2024/04/18 03:52:39;;;;;;;0.85;0.85;;;4.40;99.90;;;;;;5424110;26;20037;-79
2024/04/18 03:55:24;;;;;;;0.17;0.17;;;4.50;99.90;;;;;;5447396;26;20103;-80
2024/04/18 03:57:50;;;;;;;1.73;1.63;;;4.50;99.90;;;;;;5448607;26;20006;-77
2024/04/18 04:00:37;;;;;;;0.82;0.82;;;4.40;99.90;;;;;;5439867;26;20009;-81
2024/04/18 04:03:05;;;;;;;1.65;1.55;;;4.40;99.90;;;;;;5430115;26;20011;-77
2024/04/18 04:05:31;;;;;;;1.13;1.02;;;4.40;99.90;;;;;;5416024;26;20021;-82
2024/04/18 04:08:01;;;;;;;1.88;1.77;;;4.40;99.90;;;;;;5445645;26;20007;-77
2024/04/18 04:10:39;;;;;;;6.75;1.58;;;4.40;99.90;;;;;;5441219;26;20030;-77
2024/04/18 04:13:05;;;;;;;1.33;0.95;;;4.30;99.90;;;;;;5438077;26;20016;-77
2024/04/18 04:15:47;;;;;;;0.60;0.60;;;4.30;99.90;;;;;;5429342;26;20682;-77
2024/04/18 04:18:33;;;;;;;2.42;2.03;;;4.40;99.90;;;;;;5400429;26;20031;-77
2024/04/18 04:21:23;;;;;;;1.00;0.93;;;4.40;99.90;;;;;;5373095;26;20027;-76
2024/04/18 04:23:50;;;;;;;0.75;0.75;;;4.40;99.90;;;;;;5417755;26;20036;-77
2024/04/18 04:26:16;;;;;;;0.77;0.77;;;4.30;99.90;;;;;;5438279;26;20039;-78
2024/04/18 04:28:42;;;;;;;0.55;0.55;;;4.30;99.90;;;;;;5427039;26;20031;-77
2024/04/18 04:31:08;;;;;;;1.52;1.42;;;4.40;99.90;;;;;;5418846;26;20418;-77
2024/04/18 04:33:34;;;;;;;0.57;0.57;;;4.40;99.90;;;;;;5407148;26;20031;-77
2024/04/18 04:36:00;;;;;;;1.35;1.25;;;4.30;99.90;;;;;;5434564;26;20040;-76
2024/04/18 04:38:27;;;;;;;0.95;0.88;;;4.40;99.90;;;;;;5424268;26;20039;-76
2024/04/18 04:40:53;;;;;;;1.35;1.27;;;4.40;99.90;;;;;;5397406;26;20031;-79
2024/04/18 04:43:19;;;;;;;1.35;0.93;;;4.40;99.90;;;;;;5434314;26;20032;-76
2024/04/18 04:45:45;;;;;;;0.85;0.85;;;4.40;99.90;;;;;;5404908;26;20046;-76
2024/04/18 04:48:11;;;;;;;0.50;0.50;;;4.40;99.90;;;;;;5431700;26;20046;-77
2024/04/18 04:50:59;;;;;;;0.20;0.20;;;4.50;99.90;;;;;;5426033;26;20047;-79
2024/04/18 04:53:34;;;;;;;0.50;0.50;;;4.40;99.90;;;;;;5431004;26;20073;-84
2024/04/18 04:56:01;;;;;;;1.25;1.15;;;4.40;99.90;;;;;;5430548;26;20035;-77
2024/04/18 04:58:27;;;;;;;0.20;0.20;;;4.50;99.90;;;;;;5416271;26;20035;-78
2024/04/18 05:00:54;;;;;;;2.00;1.55;;;4.40;99.90;;;;;;5436787;26;20039;-77
2024/04/18 05:03:36;;;;;;;1.08;1.08;;;4.50;99.90;;;;;;5434713;26;20051;-80
2024/04/18 05:06:21;;;;;;;0.80;0.80;;;4.50;99.90;;;;;;5401680;26;20167;-77
2024/04/18 05:09:09;;;;;;;1.23;1.10;;;4.50;99.90;;;;;;5437587;26;20377;-77
2024/04/18 05:11:35;;;;;;;2.00;1.38;;;4.60;99.90;;;;;;5412005;26;20036;-77
2024/04/18 05:14:04;;;;;;;0.47;0.47;;;4.60;99.90;;;;;;5429895;26;20035;-77
2024/04/18 05:16:49;;;;;;;18.02;2.35;;;4.60;99.90;;;;;;5428326;26;20420;-77
2024/04/18 05:19:15;;;;;;;0.88;0.88;;;4.60;99.90;;;;;;5432042;26;20027;-78
2024/04/18 05:21:41;;;;;;;0.98;0.90;;;4.50;99.90;;;;;;5439848;26;20047;-77
2024/04/18 05:24:26;;;;;;;0.45;0.45;;;4.50;99.90;;;;;;5441834;26;20046;-78
2024/04/18 05:26:52;;;;;;;1.85;0.93;;;4.60;99.90;;;;;;5437815;26;20047;-78
2024/04/18 05:32:04;;;;;;;1.70;1.05;;;4.70;99.90;;;;;;5439372;26;20086;-78
2024/04/18 05:34:30;;;;;;;0.75;0.75;;;4.70;99.90;;;;;;5442664;26;20034;-76
2024/04/18 05:36:56;;;;;;;2.05;1.20;;;4.70;99.90;;;;;;5420533;26;20035;-77
2024/04/18 05:39:23;;;;;;;1.15;1.05;;;4.80;99.90;;;;;;5433327;26;20031;-79
2024/04/18 05:41:49;;;;;;;0.77;0.77;;;4.80;99.90;;;;;;5451051;26;20056;-79
2024/04/18 05:44:40;;;;;;;2.10;1.90;;;4.80;99.90;;;;;;5420832;26;20026;-77
2024/04/18 05:47:07;;;;;;;1.15;1.10;;;4.80;99.90;;;;;;5428851;26;20382;-77
2024/04/18 05:49:34;;;;;;;1.10;1.05;;;4.80;99.90;;;;;;5438060;26;20038;-78
2024/04/18 05:52:00;;;;;;;0.60;0.60;;;4.90;99.90;;;;;;5385001;26;20028;-78
2024/04/18 05:54:29;;;;;;;0.68;0.68;;;4.90;99.90;;;;;;5431374;26;20043;-82
2024/04/18 05:57:06;;;;;;;1.30;1.30;;;5.10;99.90;;;;;;5417182;26;20035;-93
2024/04/18 05:59:54;;;;;;;1.30;1.23;;;5.20;99.90;;;;;;5428696;26;20343;-92
2024/04/18 06:02:21;;;;;;;0.95;0.70;;;5.20;99.90;;;;;;5423333;26;20031;-93
2024/04/18 06:04:47;;;;;;;3.72;2.35;;;5.40;55.50;;;;;;5418168;26;20036;-92
2024/04/18 06:07:32;;;;;;;1.48;1.20;;;5.40;1.00;;;;;;5428749;26;20044;-91
2024/04/18 06:09:58;;;;;;;1.65;1.17;;;5.70;1.00;;;;;;5432339;26;20039;-91
2024/04/18 06:12:25;;;;;;;1.88;1.38;;;5.80;99.90;;;;;;5440973;26;20035;-88
2024/04/18 06:14:51;;;;;;;1.85;1.23;;;5.90;99.90;;;;;;5391807;26;20020;-84
2024/04/18 06:17:17;;;;;;;0.80;0.80;;;5.80;99.90;;;;;;5436784;26;20012;-87
2024/04/18 06:19:50;;;;;;;1.65;0.93;;;5.70;99.90;;;;;;5424075;26;20030;-86
2024/04/18 06:22:29;;;;;;;1.27;1.17;;;5.80;99.90;;;;;;5432123;26;20411;-87
2024/04/18 06:25:16;;;;;;;0.70;0.70;;;5.80;99.90;;;;;;5428070;26;20039;-85
2024/04/18 06:27:43;;;;;;;1.70;1.30;;;5.90;99.90;;;;;;5447586;26;20039;-84
2024/04/18 06:30:09;;;;;;;2.28;1.80;;;6.00;99.90;;;;;;5426588;26;20023;-84
2024/04/18 06:32:37;;;;;;;1.35;1.27;;;6.10;99.90;;;;;;5404319;26;20028;-85
2024/04/18 06:35:04;;;;;;;1.80;1.70;;;6.10;99.90;;;;;;5432491;26;20418;-89
2024/04/18 06:37:31;;;;;;;1.02;0.93;;;5.90;45.90;;;;;;5418166;26;20044;-85
2024/04/18 06:39:57;;;;;;;2.05;1.90;;;6.00;47.80;;;;;;5447991;26;20039;-85
2024/04/18 06:42:23;;;;;;;1.55;1.33;;;6.00;1.00;;;;;;5429238;26;20031;-85
2024/04/18 06:44:49;;;;;;;1.77;1.65;;;6.10;1.00;;;;;;5411432;26;20044;-88
2024/04/18 06:47:16;;;;;;;0.68;0.65;;;6.10;1.00;;;;;;5444998;26;20039;-85
2024/04/18 06:50:02;;;;;;;1.90;1.40;;;6.30;1.00;;;;;;5438936;26;20028;-82
2024/04/18 06:52:28;;;;;;;1.52;1.42;;;6.40;1.00;;;;;;5427325;26;20003;-85
2024/04/18 06:54:54;;;;;;;1.42;1.33;;;6.80;1.00;;;;;;5392124;26;20006;-82
2024/04/18 06:57:39;;;;;;;4.85;1.25;;;6.80;1.00;;;;;;5429561;26;20043;-83
2024/04/18 07:00:06;;;;;;;0.80;0.77;;;6.70;99.90;;;;;;5373009;26;20026;-82
2024/04/18 07:02:32;;;;;;;2.50;1.63;;;6.50;1.00;;;;;;5435853;26;20031;-86
2024/04/18 07:05:17;;;;;;;4.40;1.88;;;6.60;1.00;;;;;;5414439;26;20048;-83
2024/04/18 07:07:46;;;;;;;1.50;0.60;;;6.50;1.00;;;;;;5406150;26;20492;-84
2024/04/18 07:10:31;;;;;;;1.65;1.05;;;6.50;1.00;;;;;;5408268;26;20482;-84
2024/04/18 07:12:57;;;;;;;2.63;1.48;;;6.50;1.00;;;;;;5435951;26;20052;-85
2024/04/18 07:15:23;;;;;;;0.60;0.60;;;6.60;1.00;;;;;;5413977;26;20464;-85
2024/04/18 07:18:08;;;;;;;0.90;0.90;;;6.70;1.00;;;;;;5398122;26;20426;-86
2024/04/18 07:20:35;;;;;;;0.95;0.95;;;7.00;1.00;;;;;;5390404;26;20032;-84
2024/04/18 07:23:05;;;;;;;0.47;0.47;;;7.30;1.00;;;;;;5416180;26;20014;-86
2024/04/18 07:25:32;;;;;;;1.00;0.90;;;7.80;99.90;;;;;;5432856;26;20028;-85
2024/04/18 07:27:58;;;;;;;1.08;0.82;;;8.10;99.90;;;;;;5441139;26;20038;-83
2024/04/18 07:30:24;;;;;;;0.35;0.35;;;8.00;99.90;;;;;;5446690;26;20034;-85
2024/04/18 07:32:51;;;;;;;0.43;0.43;;;8.00;99.90;;;;;;5420505;26;20032;-80
2024/04/18 07:35:37;;;;;;;0.68;0.50;;;7.60;89.50;;;;;;5426635;26;20100;-84
2024/04/18 07:38:05;;;;;;;1.13;1.13;;;7.30;99.90;;;;;;5430197;26;20043;-85
2024/04/18 07:40:31;;;;;;;0.60;0.60;;;7.10;99.90;;;;;;5424772;26;20023;-86
2024/04/18 07:42:57;;;;;;;1.27;1.05;;;7.00;99.90;;;;;;5384531;26;20039;-83
2024/04/18 07:45:23;;;;;;;0.70;0.70;;;7.10;99.90;;;;;;5418594;26;20047;-80
2024/04/18 07:47:49;;;;;;;0.90;0.90;;;7.20;99.90;;;;;;5392590;26;20031;-85
2024/04/18 07:50:16;;;;;;;0.57;0.57;;;7.40;84.80;;;;;;5427694;26;20352;-83
2024/04/18 07:52:42;;;;;;;0.85;0.85;;;7.80;99.90;;;;;;5438792;26;20157;-82
2024/04/18 07:55:08;;;;;;;1.05;1.00;;;8.50;92.60;;;;;;5446522;26;20026;-84
2024/04/18 07:57:34;;;;;;;0.80;0.80;;;8.10;1.00;;;;;;5423130;26;20045;-83
2024/04/18 08:00:03;;;;;;;6.13;1.27;;;7.90;45.60;;;;;;5421732;26;20036;-81
2024/04/18 08:02:37;;;;;;;1.98;0.55;;;8.20;35.10;;;;;;5433936;26;20038;-85
2024/04/18 08:05:04;;;;;;;0.57;0.57;;;8.20;1.00;;;;;;5437445;26;20117;-78
2024/04/18 08:07:30;;;;;;;1.80;1.35;;;8.20;1.00;;;;;;5421368;26;20035;-82
2024/04/18 08:09:56;;;;;;;1.63;0.80;;;8.40;1.00;;;;;;5416739;26;20035;-79
2024/04/18 08:12:22;;;;;;;1.73;1.63;;;8.30;1.00;;;;;;5424053;26;20043;-83
2024/04/18 08:14:48;;;;;;;0.30;0.30;;;8.20;1.00;;;;;;5429906;26;20039;-81
2024/04/18 08:17:14;;;;;;;5.20;2.70;;;8.00;1.00;;;;;;5414209;26;20035;-80
2024/04/18 08:19:41;;;;;;;1.63;1.30;;;7.80;1.00;;;;;;5421096;26;20479;-82
2024/04/18 08:22:07;;;;;;;1.00;1.00;;;7.80;1.00;;;;;;5414241;26;20039;-80
2024/04/18 08:24:35;;;;;;;0.50;0.30;;;7.70;1.00;;;;;;5393063;26;20107;-78
2024/04/18 08:27:07;;;;;;;1.20;1.10;;;8.00;1.00;;;;;;5428500;26;20046;-81
2024/04/18 08:29:33;;;;;;;0.25;0.25;;;7.80;1.00;;;;;;5411613;26;20031;-81
2024/04/18 08:32:00;;;;;;;0.80;0.70;;;8.00;1.00;;;;;;5416782;26;20035;-79
2024/04/18 08:34:26;;;;;;;0.20;0.20;;;8.00;1.00;;;;;;5428098;26;20047;-80
2024/04/18 08:36:52;;;;;;;0.55;0.55;;;8.30;1.00;;;;;;5430309;26;20035;-82
2024/04/18 08:39:18;;;;;;;2.10;1.45;;;8.50;1.00;;;;;;5434157;26;20488;-79
2024/04/18 08:41:44;;;;;;;1.38;0.70;;;8.30;1.00;;;;;;5402167;26;20031;-78
2024/04/18 08:44:11;;;;;;;0.47;0.32;;;8.10;1.00;;;;;;5429502;26;20040;-82
2024/04/18 08:46:38;;;;;;;0.45;0.45;;;8.10;99.90;;;;;;5435434;26;20031;-82
2024/04/18 08:49:06;;;;;;;1.08;1.00;;;8.10;1.00;;;;;;5421781;26;20039;-81
2024/04/18 08:51:37;;;;;;;1.08;0.85;;;8.20;99.90;;;;;;5416772;26;20035;-80
2024/04/18 08:54:07;;;;;;;0.75;0.75;;;9.00;99.90;;;;;;5448666;26;20018;-80
2024/04/18 08:56:34;;;;;;;0.95;0.85;;;9.70;99.90;;;;;;5438519;26;20011;-82
2024/04/18 08:59:01;;;;;;;0.20;0.20;;;10.00;1.00;;;;;;5413091;26;20003;-79
2024/04/18 09:01:27;;;;;;;0.35;0.35;;;9.90;54.70;;;;;;5438930;26;20012;-80
2024/04/18 09:03:55;;;;;;;0.93;0.77;;;9.70;15.10;;;;;;5438937;26;20031;-79
2024/04/18 09:06:22;;;;;;;0.65;0.65;;;9.80;42.10;;;;;;5444867;26;20102;-81
2024/04/18 09:08:50;;;;;;;0.20;0.20;;;9.60;83.50;;;;;;5424473;26;20003;-81
2024/04/18 09:11:16;;;;;;;0.73;0.73;;;9.10;99.90;;;;;;5426219;26;20019;-80
2024/04/18 09:13:46;;;;;;;0.40;0.40;;;9.00;99.90;;;;;;5439803;26;20023;-80
2024/04/18 09:16:13;;;;;;;0.93;0.55;;;8.90;99.90;;;;;;5431874;26;20026;-80
2024/04/18 09:18:39;;;;;;;0.68;0.57;;;8.90;99.90;;;;;;5417283;26;20035;-79
2024/04/18 09:21:09;;;;;;;0.40;0.40;;;9.00;99.90;;;;;;5431010;26;20103;-80
2024/04/18 09:23:36;;;;;;;1.98;0.52;;;9.50;95.80;;;;;;5431867;26;20039;-80
2024/04/18 09:26:03;;;;;;;0.68;0.55;;;9.30;41.20;;;;;;5421661;26;20076;-78
2024/04/18 09:28:29;;;;;;;0.55;0.55;;;9.20;1.00;;;;;;5432997;26;20031;-79
2024/04/18 09:30:58;;;;;;;1.38;0.70;;;9.30;1.00;;;;;;5429841;26;20488;-79
2024/04/18 09:33:25;;;;;;;1.10;0.47;;;9.60;1.00;;;;;;5417900;26;20039;-79
2024/04/18 09:35:56;;;;;;;0.82;0.82;;;9.50;1.00;;;;;;5382964;26;20037;-79
2024/04/18 09:38:22;;;;;;;;;;;9.40;19.60;;;;;;5422940;26;20032;-80
2024/04/18 09:41:12;;;;;;;0.30;0.30;;;9.40;1.00;;;;;;5431447;26;19954;-79
2024/04/18 09:43:44;;;;;;;0.15;0.15;;;9.20;1.00;;;;;;5406466;26;20036;-79
2024/04/18 09:46:12;;;;;;;0.65;0.65;;;9.40;1.00;;;;;;5430882;26;20030;-78
2024/04/18 09:48:39;;;;;;;0.85;0.77;;;10.30;1.00;;;;;;5424237;26;20394;-80
2024/04/18 09:51:06;;;;;;;0.52;0.45;;;10.70;1.00;;;;;;5425623;26;20030;-81
2024/04/18 09:53:33;;;;;;;1.10;0.50;;;10.40;99.90;;;;;;5433180;26;20424;-83
2024/04/18 09:56:00;;;;;;;0.85;0.77;;;9.70;1.00;;;;;;5439203;26;20043;-81
2024/04/18 09:58:27;;;;;;;0.65;0.60;;;9.50;1.00;;;;;;5444700;26;20046;-81
2024/04/18 10:00:55;;;;;;;0.38;0.38;;;9.40;1.00;;;;;;5430318;26;20040;-81
2024/04/18 10:03:24;;;;;;;1.67;1.20;;;9.20;1.00;;;;;;5437688;26;20030;-79
2024/04/18 10:05:53;;;;;;;0.77;0.77;;;9.00;1.00;;;;;;5432619;26;20366;-78
2024/04/18 10:08:22;;;;;;;0.47;0.47;;;8.90;1.00;;;;;;5417243;26;20031;-81
2024/04/18 10:10:50;;;;;;;1.90;1.10;;;9.00;1.00;;;;;;5418371;26;20052;-80
2024/04/18 10:13:16;;;;;;;0.55;0.55;;;9.00;1.00;;;;;;5415509;26;20023;-77
2024/04/18 10:15:42;;;;;;;0.57;0.57;;;9.00;1.00;;;;;;5428142;26;20035;-78
2024/04/18 10:18:37;;;;;;;0.57;0.57;;;9.00;1.00;;;;;;5437434;26;20028;-81
2024/04/18 10:21:12;;;;;;;0.35;0.35;;;9.10;1.00;;;;;;5429691;26;20111;-79
2024/04/18 10:23:48;;;;;;;1.17;0.95;;;9.00;1.00;;;;;;5445197;26;20030;-78
2024/04/18 10:26:15;;;;;;;0.38;0.38;;;9.10;1.00;;;;;;5438577;26;20038;-79
2024/04/18 10:28:42;;;;;;;2.08;0.90;;;9.00;1.00;;;;;;5428024;26;20035;-78
2024/04/18 10:31:08;;;;;;;0.65;0.32;;;9.00;1.00;;;;;;5433475;26;20035;-81
2024/04/18 10:33:35;;;;;;;0.55;0.55;;;8.70;12.90;;;;;;5437639;26;20040;-83
2024/04/18 10:36:01;;;;;;;1.27;0.85;;;8.50;99.90;;;;;;5445446;26;20036;-78
2024/04/18 10:38:28;;;;;;;0.73;0.73;;;8.50;99.90;;;;;;5405909;26;20027;-79
2024/04/18 10:41:04;;;;;;;4.47;1.08;;;8.70;99.90;;;;;;5423552;26;20036;-81
2024/04/18 10:43:33;;;;;;;1.02;0.80;;;9.00;46.80;;;;;;5428533;26;20153;-80
2024/04/18 10:46:00;;;;;;;0.80;0.80;;;9.30;1.00;;;;;;5429077;26;20039;-81
2024/04/18 10:48:27;;;;;;;0.88;0.70;;;9.10;1.00;;;;;;5422078;26;20040;-80
2024/04/18 10:50:54;;;;;;;1.75;1.10;;;9.10;1.00;;;;;;5416147;26;20035;-77
2024/04/18 10:53:20;;;;;;;0.20;0.20;;;9.10;1.00;;;;;;5423460;26;20587;-80
2024/04/18 10:55:47;;;;;;;0.95;0.95;;;9.80;1.00;;;;;;5429956;26;20055;-79
2024/04/18 10:58:17;;;;;;;1.55;0.82;;;10.50;99.90;;;;;;5415981;26;19999;-80
2024/04/18 11:00:43;;;;;;;0.57;0.57;;;11.10;99.90;;;;;;5443846;26;20058;-81
2024/04/18 11:03:10;;;;;;;0.30;0.30;;;11.00;99.90;;;;;;5416115;26;20039;-79
2024/04/18 11:05:43;;;;;;;0.85;0.68;;;10.80;99.90;;;;;;5428643;26;20027;-81
2024/04/18 11:08:23;;;;;;;1.10;1.00;;;10.10;99.90;;;;;;5427525;26;20032;-80
2024/04/18 11:10:50;;;;;;;1.33;0.77;;;9.90;99.90;;;;;;5432594;26;20030;-79
2024/04/18 11:13:17;;;;;;;0.50;0.50;;;9.80;99.90;;;;;;5443148;26;20364;-81
2024/04/18 11:15:44;;;;;;;0.63;0.60;;;9.60;99.90;;;;;;5422141;26;20663;-79
2024/04/18 11:18:10;;;;;;;0.63;0.50;;;9.30;99.90;;;;;;5423716;26;20043;-81
2024/04/18 11:20:36;;;;;;;0.82;0.63;;;9.30;1.00;;;;;;5369675;26;20038;-80
2024/04/18 11:23:03;;;;;;;0.63;0.60;;;9.40;99.90;;;;;;5436235;26;20042;-78
2024/04/18 11:25:30;;;;;;;0.75;0.75;;;9.50;99.90;;;;;;5440395;26;20467;-80
2024/04/18 11:28:06;;;;;;;0.75;0.65;;;9.80;99.90;;;;;;5422553;26;20044;-79
2024/04/18 11:30:33;;;;;;;1.80;1.48;;;10.50;99.90;;;;;;5436010;26;20011;-83
2024/04/18 11:32:59;;;;;;;0.30;0.30;;;10.10;99.90;;;;;;5430694;26;20031;-80
2024/04/18 11:35:26;;;;;;;2.50;0.80;;;10.10;99.90;;;;;;5431532;26;20740;-81
2024/04/18 11:37:55;;;;;;;0.22;0.22;;;10.00;99.90;;;;;;5434785;26;20162;-81
2024/04/18 11:40:21;;;;;;;0.82;0.57;;;10.10;99.90;;;;;;5422204;26;20380;-79
2024/04/18 11:42:48;;;;;;;3.40;0.47;;;10.10;99.90;;;;;;5422048;26;20491;-79
2024/04/18 11:45:14;;;;;;;0.60;0.60;;;10.30;99.90;;;;;;5427869;26;20463;-79
2024/04/18 11:47:40;;;;;;;0.40;0.40;;;11.30;99.90;;;;;;5439902;26;20491;-79
2024/04/18 11:50:06;;;;;;;0.75;0.52;;;11.50;99.90;;;;;;5436689;26;20040;-78
2024/04/18 11:52:33;;;;;;;1.48;0.90;;;11.60;99.90;;;;;;5436751;26;20040;-79
2024/04/18 11:54:59;;;;;;;0.63;0.57;;;11.60;99.90;;;;;;5420447;26;20027;-76
2024/04/18 11:57:38;;;;;;;0.65;0.60;;;11.40;99.90;;;;;;5432278;26;20031;-79
2024/04/18 12:00:04;;;;;;;0.60;0.60;;;11.40;99.90;;;;;;5427967;26;20383;-79
2024/04/18 12:02:50;;;;;;;0.40;0.40;;;11.20;99.90;;;;;;5411591;26;20337;-80
2024/04/18 12:05:21;;;;;;;0.32;0.32;;;10.90;99.90;;;;;;5426200;26;20448;-81
2024/04/18 12:07:48;;;;;;;1.05;0.82;;;11.00;99.90;;;;;;5426683;26;20543;-80
2024/04/18 12:10:29;;;;;;;;;;;11.00;99.90;;;;;;5433808;26;20028;-80
2024/04/18 12:13:04;;;;;;;0.30;0.30;;;11.30;99.90;;;;;;5429938;26;19955;-79
2024/04/18 12:15:34;;;;;;;0.57;0.57;;;12.00;99.90;;;;;;5388246;26;20030;-79
2024/04/18 12:18:02;;;;;;;1.17;0.30;;;12.40;99.90;;;;;;5412588;26;20487;-77
2024/04/18 12:20:46;;;;;;;0.52;0.52;;;11.90;99.90;;;;;;5436543;26;20044;-80
2024/04/18 12:23:33;;;;;;;1.00;0.63;;;11.00;99.90;;;;;;5431393;26;20047;-80
2024/04/18 12:26:04;;;;;;;1.00;0.30;;;10.70;99.90;;;;;;5423880;26;20039;-80
2024/04/18 12:28:43;;;;;;;0.95;0.88;;;10.40;99.90;;;;;;5418436;26;20040;-77
2024/04/18 12:31:09;;;;;;;0.40;0.40;;;10.20;99.90;;;;;;5417592;26;20125;-79
2024/04/18 12:33:48;;;;;;;0.10;0.10;;;10.20;99.90;;;;;;5412059;26;20035;-79
2024/04/18 12:36:16;;;;;;;0.52;0.52;;;10.60;99.90;;;;;;5433931;26;20038;-80
2024/04/18 12:38:44;;;;;;;0.45;0.45;;;10.70;99.90;;;;;;5439186;26;20364;-77
2024/04/18 12:41:11;;;;;;;0.50;0.40;;;10.90;99.90;;;;;;5445141;26;20031;-78
2024/04/18 12:43:37;;;;;;;0.65;0.50;;;11.10;99.90;;;;;;5418301;26;20028;-80
2024/04/18 12:46:24;;;;;;;0.20;0.20;;;11.20;99.90;;;;;;5427132;26;20031;-79
2024/04/18 12:48:55;;;;;;;0.65;0.65;;;11.10;99.90;;;;;;5427770;26;20508;-80
2024/04/18 12:51:21;;;;;;;1.05;0.68;;;11.50;99.90;;;;;;5390220;26;20031;-81
2024/04/18 12:53:47;;;;;;;1.73;0.43;;;11.80;99.90;;;;;;5416035;26;20031;-81
2024/04/18 12:56:14;;;;;;;0.65;0.40;;;11.40;99.90;;;;;;5437206;26;20035;-80
2024/04/18 12:58:44;;;;;;;0.52;0.28;;;11.10;99.90;;;;;;5425722;26;20371;-78
2024/04/18 13:01:11;;;;;;;0.20;0.20;;;11.10;99.90;;;;;;5430304;26;20523;-79
2024/04/18 13:03:38;;;;;;;0.40;0.40;;;11.10;99.90;;;;;;5423007;26;20035;-78
2024/04/18 13:06:25;;;;;;;0.63;0.40;;;11.10;99.90;;;;;;5445575;26;20051;-79
2024/04/18 13:08:51;;;;;;;1.08;1.02;;;11.20;99.90;;;;;;5418509;26;20035;-80
2024/04/18 13:11:38;;;;;;;0.35;0.35;;;11.50;99.90;;;;;;5423009;26;20377;-79
2024/04/18 13:14:05;;;;;;;0.40;0.40;;;11.80;99.90;;;;;;5434567;26;20471;-80
2024/04/18 13:16:34;;;;;;;0.55;0.55;;;11.60;99.90;;;;;;5444535;26;20032;-80
2024/04/18 13:19:10;;;;;;;0.57;0.57;;;11.50;99.90;;;;;;5416940;26;20373;-80
2024/04/18 13:21:36;;;;;;;0.82;0.82;;;11.60;99.90;;;;;;5421980;26;20027;-79